createdAt,value
2019-05-11T00:00:23.888Z,101314.80
2019-05-11T00:02:26.131Z,101314.29
2019-05-11T00:04:28.157Z,101315.87
2019-05-11T00:06:30.187Z,101315.87
2019-05-11T00:08:32.379Z,101317.98
2019-05-11T00:10:34.428Z,101322.30
2019-05-11T00:12:38.447Z,101316.86
2019-05-11T00:14:40.618Z,101314.98
2019-05-11T00:16:42.622Z,101316.18
2019-05-11T00:18:44.915Z,101309.78
2019-05-11T00:20:47.222Z,101313.98
2019-05-11T00:22:51.996Z,101315.11
2019-05-11T00:24:54.201Z,101320.36
2019-05-11T00:26:56.776Z,101321.30
2019-05-11T00:28:58.927Z,101319.35
2019-05-11T00:31:03.778Z,101306.26
2019-05-11T00:33:06.020Z,101310.88
2019-05-11T00:35:08.013Z,101312.31
2019-05-11T00:37:10.045Z,101309.88
2019-05-11T00:39:12.237Z,101309.31
2019-05-11T00:41:14.233Z,101305.70
2019-05-11T00:43:16.284Z,101307.44
2019-05-11T00:45:18.401Z,101307.02
2019-05-11T00:47:20.589Z,101310.38
2019-05-11T00:49:22.644Z,101307.77
2019-05-11T00:51:24.786Z,101309.93
2019-05-11T00:53:26.937Z,101304.02
2019-05-11T00:55:29.043Z,101298.21
2019-05-11T00:57:31.182Z,101292.78
2019-05-11T00:59:33.169Z,101300.63
2019-05-11T01:01:35.358Z,101292.27
2019-05-11T01:03:37.584Z,101300.94
2019-05-11T01:05:39.689Z,101304.07
2019-05-11T01:07:41.714Z,101303.56
2019-05-11T01:09:44.068Z,101306.01
2019-05-11T01:11:46.012Z,101309.94
2019-05-11T01:13:48.057Z,101309.06
2019-05-11T01:15:50.255Z,101305.45
2019-05-11T01:17:52.299Z,101298.69
2019-05-11T01:19:54.423Z,101300.06
2019-05-11T01:21:56.750Z,101301.72
2019-05-11T01:23:58.759Z,101305.56
2019-05-11T01:26:00.800Z,101306.26
2019-05-11T01:28:03.381Z,101310.23
2019-05-11T01:30:07.073Z,101308.44
2019-05-11T01:32:09.112Z,101310.57
2019-05-11T01:34:11.577Z,101310.83
2019-05-11T01:36:13.739Z,101312.81
2019-05-11T01:38:15.757Z,101311.19
2019-05-11T01:40:18.175Z,101316.17
2019-05-11T01:42:19.738Z,101312.38
2019-05-11T01:44:21.838Z,101314.30
2019-05-11T01:46:24.057Z,101315.13
2019-05-11T01:48:26.042Z,101312.92
2019-05-11T01:50:28.442Z,101309.92
2019-05-11T01:52:30.507Z,101310.36
2019-05-11T01:54:32.622Z,101308.17
2019-05-11T01:56:34.636Z,101304.87
2019-05-11T01:58:36.834Z,101309.23
2019-05-11T02:00:38.877Z,101307.56
2019-05-11T02:02:40.901Z,101308.12
2019-05-11T02:04:43.329Z,101299.55
2019-05-11T02:06:46.292Z,101304.23
2019-05-11T02:08:48.601Z,101299.95
2019-05-11T02:10:50.933Z,101297.83
2019-05-11T02:12:52.928Z,101296.30
2019-05-11T02:14:54.970Z,101299.36
2019-05-11T02:16:57.348Z,101299.22
2019-05-11T02:18:59.167Z,101298.72
2019-05-11T02:21:01.165Z,101306.95
2019-05-11T02:23:04.451Z,101306.34
2019-05-11T02:25:07.309Z,101301.77
2019-05-11T02:27:09.392Z,101308.32
2019-05-11T02:29:11.757Z,101312.25
2019-05-11T02:31:13.767Z,101310.12
2019-05-11T02:33:15.779Z,101312.42
2019-05-11T02:35:17.958Z,101315.16
2019-05-11T02:37:20.144Z,101315.96
2019-05-11T02:39:22.495Z,101317.66
2019-05-11T02:41:35.583Z,101318.47
2019-05-11T02:43:28.559Z,101319.77
2019-05-11T02:45:41.514Z,101318.35
2019-05-11T02:47:43.855Z,101329.33
2019-05-11T02:49:45.886Z,101324.52
2019-05-11T02:51:49.700Z,101330.52
2019-05-11T02:53:52.773Z,101331.98
2019-05-11T02:55:54.817Z,101328.42
2019-05-11T02:57:56.839Z,101335.98
2019-05-11T02:59:58.911Z,101332.91
2019-05-11T03:02:01.004Z,101332.03
2019-05-11T03:04:03.204Z,101330.26
2019-05-11T03:06:06.592Z,101335.33
2019-05-11T03:08:08.881Z,101336.66
2019-05-11T03:10:11.452Z,101336.35
2019-05-11T03:12:13.689Z,101333.26
2019-05-11T03:14:15.693Z,101335.69
2019-05-11T03:16:17.771Z,101334.73
2019-05-11T03:18:21.096Z,101338.63
2019-05-11T03:20:23.103Z,101334.63
2019-05-11T03:22:25.457Z,101333.00
2019-05-11T03:24:27.808Z,101344.17
2019-05-11T03:26:30.079Z,101334.20
2019-05-11T03:28:32.144Z,101326.44
2019-05-11T03:30:34.414Z,101326.44
2019-05-11T03:32:36.472Z,101340.41
2019-05-11T03:34:38.489Z,101344.83
2019-05-11T03:36:40.714Z,101348.09
2019-05-11T03:38:42.776Z,101345.45
2019-05-11T03:40:44.793Z,101344.83
2019-05-11T03:42:47.766Z,101356.97
2019-05-11T03:44:49.815Z,101355.05
2019-05-11T03:46:51.772Z,101357.88
2019-05-11T03:48:54.077Z,101363.06
2019-05-11T03:50:56.171Z,101364.09
2019-05-11T03:52:58.151Z,101364.70
2019-05-11T03:55:00.520Z,101368.50
2019-05-11T03:57:02.084Z,101363.78
2019-05-11T03:59:04.307Z,101368.50
2019-05-11T04:01:06.364Z,101369.22
2019-05-11T04:03:08.477Z,101373.42
2019-05-11T04:05:10.455Z,101368.20
2019-05-11T04:07:12.847Z,101374.66
2019-05-11T04:09:14.422Z,101378.36
2019-05-11T04:11:16.477Z,101381.27
2019-05-11T04:13:18.824Z,101379.47
2019-05-11T04:17:36.015Z,101380.52
2019-05-11T04:19:38.337Z,101385.58
2019-05-11T04:21:40.323Z,101390.66
2019-05-11T04:23:42.360Z,101388.64
2019-05-11T04:25:44.929Z,101386.70
2019-05-11T04:27:47.082Z,101393.21
2019-05-11T04:29:49.090Z,101388.12
2019-05-11T04:31:51.824Z,101392.86
2019-05-11T04:33:53.837Z,101397.23
2019-05-11T04:35:56.035Z,101402.16
2019-05-11T04:37:58.313Z,101405.47
2019-05-11T04:40:00.320Z,101398.97
2019-05-11T04:42:02.441Z,101404.91
2019-05-11T04:44:04.713Z,101406.80
2019-05-11T04:46:06.730Z,101406.63
2019-05-11T04:48:08.963Z,101411.82
2019-05-11T04:50:11.625Z,101411.52
2019-05-11T04:52:13.662Z,101419.15
2019-05-11T04:56:16.477Z,101419.78
2019-05-11T04:58:18.599Z,101420.87
2019-05-11T05:00:21.201Z,101420.20
2019-05-11T05:02:27.189Z,101431.19
2019-05-11T05:04:28.701Z,101420.70
2019-05-11T05:06:30.686Z,101425.17
2019-05-11T05:08:32.938Z,101430.27
2019-05-11T05:10:34.951Z,101428.83
2019-05-11T05:12:36.925Z,101431.94
2019-05-11T05:14:39.130Z,101439.77
2019-05-11T05:16:41.345Z,101435.05
2019-05-11T05:18:43.406Z,101442.28
2019-05-11T05:20:45.840Z,101439.67
2019-05-11T05:22:47.401Z,101445.35
2019-05-11T05:24:49.376Z,101449.88
2019-05-11T05:26:51.600Z,101450.84
2019-05-11T05:28:53.796Z,101451.81
2019-05-11T05:30:55.795Z,101452.12
2019-05-11T05:32:58.101Z,101452.55
2019-05-11T05:35:00.224Z,101453.57
2019-05-11T05:37:02.223Z,101460.63
2019-05-11T05:39:08.828Z,101459.41
2019-05-11T05:41:10.321Z,101471.18
2019-05-11T05:43:25.587Z,101466.30
2019-05-11T05:45:16.503Z,101467.83
2019-05-11T05:47:18.536Z,101467.21
2019-05-11T05:49:20.532Z,101472.20
2019-05-11T05:51:23.204Z,101476.14
2019-05-11T05:53:26.121Z,101478.86
2019-05-11T05:55:28.113Z,101480.80
2019-05-11T05:57:30.320Z,101473.28
2019-05-11T05:59:32.487Z,101471.66
2019-05-11T06:01:34.490Z,101479.98
2019-05-11T06:03:37.930Z,101480.98
2019-05-11T06:05:40.143Z,101487.30
2019-05-11T06:07:42.580Z,101487.50
2019-05-11T06:09:44.493Z,101490.05
2019-05-11T06:11:46.680Z,101495.47
2019-05-11T06:13:48.683Z,101499.06
2019-05-11T06:15:51.029Z,101503.02
2019-05-11T06:17:53.517Z,101504.00
2019-05-11T06:19:55.550Z,101500.02
2019-05-11T06:21:57.923Z,101508.45
2019-05-11T06:24:06.252Z,101504.40
2019-05-11T06:26:04.125Z,101506.39
2019-05-11T06:28:06.532Z,101507.88
2019-05-11T06:30:08.351Z,101519.84
2019-05-11T06:32:10.395Z,101518.55
2019-05-11T06:34:14.900Z,101526.77
2019-05-11T06:36:17.100Z,101525.33
2019-05-11T06:38:18.951Z,101539.11
2019-05-11T06:40:21.405Z,101539.03
2019-05-11T06:42:22.988Z,101536.67
2019-05-11T06:44:25.024Z,101537.20
2019-05-11T06:46:27.378Z,101541.39
2019-05-11T06:48:30.542Z,101541.34
2019-05-11T06:50:32.663Z,101543.36
2019-05-11T06:52:34.896Z,101543.77
2019-05-11T06:54:38.046Z,101547.12
2019-05-11T06:56:40.081Z,101544.88
2019-05-11T06:58:45.446Z,101550.20
2019-05-11T07:00:46.789Z,101541.08
2019-05-11T07:02:48.801Z,101560.35
2019-05-11T07:04:51.264Z,101562.94
2019-05-11T07:06:52.980Z,101567.34
2019-05-11T07:08:54.992Z,101567.98
2019-05-11T07:10:57.346Z,101567.67
2019-05-11T07:12:59.375Z,101576.48
2019-05-11T07:15:01.419Z,101573.58
2019-05-11T07:17:03.942Z,101577.61
2019-05-11T07:19:05.484Z,101575.31
2019-05-11T07:21:08.639Z,101587.17
2019-05-11T07:23:10.944Z,101580.69
2019-05-11T07:25:12.953Z,101589.31
2019-05-11T07:27:15.519Z,101585.41
2019-05-11T07:29:17.064Z,101596.27
2019-05-11T07:31:19.257Z,101602.63
2019-05-11T07:33:21.261Z,101608.95
2019-05-11T07:35:23.524Z,101611.42
2019-05-11T07:37:27.845Z,101607.50
2019-05-11T07:39:30.678Z,101616.33
2019-05-11T07:41:32.790Z,101623.73
2019-05-11T07:43:35.182Z,101613.81
2019-05-11T07:45:38.697Z,101625.98
2019-05-11T07:47:40.925Z,101627.13
2019-05-11T07:49:42.916Z,101630.39
2019-05-11T07:51:45.009Z,101626.84
2019-05-11T07:53:48.632Z,101630.67
2019-05-11T07:55:51.125Z,101622.90
2019-05-11T07:57:53.168Z,101636.19
2019-05-11T07:59:57.883Z,101647.59
2019-05-11T08:01:59.988Z,101639.42
2019-05-11T08:04:02.001Z,101645.67
2019-05-11T08:06:04.603Z,101647.66
2019-05-11T08:08:08.567Z,101643.80
2019-05-11T08:10:10.710Z,101658.38
2019-05-11T08:12:12.800Z,101655.95
2019-05-11T08:14:15.009Z,101668.78
2019-05-11T08:16:18.531Z,101671.17
2019-05-11T08:18:21.061Z,101667.48
2019-05-11T08:20:23.046Z,101671.94
2019-05-11T08:22:25.037Z,101675.98
2019-05-11T08:24:28.461Z,101676.97
2019-05-11T08:26:30.735Z,101678.53
2019-05-11T08:28:32.836Z,101678.61
2019-05-11T08:30:37.987Z,101686.59
2019-05-11T08:32:39.420Z,101689.61
2019-05-11T08:34:41.401Z,101687.41
2019-05-11T08:36:43.765Z,101694.02
2019-05-11T08:38:48.101Z,101710.88
2019-05-11T08:40:49.634Z,101706.74
2019-05-11T08:42:51.795Z,101717.59
2019-05-11T08:44:53.811Z,101718.84
2019-05-11T08:46:58.049Z,101713.33
2019-05-11T08:49:00.338Z,101725.58
2019-05-11T08:51:03.197Z,101722.38
2019-05-11T08:53:05.190Z,101722.10
2019-05-11T08:55:08.421Z,101721.38
2019-05-11T08:57:10.565Z,101723.44
2019-05-11T08:59:12.833Z,101723.54
2019-05-11T09:01:15.155Z,101731.54
2019-05-11T09:03:18.026Z,101728.78
2019-05-11T09:05:20.775Z,101737.30
2019-05-11T09:07:24.220Z,101734.36
2019-05-11T09:09:28.650Z,101744.63
2019-05-11T09:11:30.783Z,101744.19
2019-05-11T09:13:32.862Z,101747.72
2019-05-11T09:15:39.811Z,101755.61
2019-05-11T09:17:39.994Z,101758.11
2019-05-11T09:19:42.415Z,101756.59
2019-05-11T09:21:44.665Z,101768.56
2019-05-11T09:23:48.653Z,101758.77
2019-05-11T09:25:50.965Z,101768.53
2019-05-11T09:27:53.005Z,101771.67
2019-05-11T09:29:55.027Z,101772.50
2019-05-11T09:31:58.203Z,101775.02
2019-05-11T09:34:00.816Z,101775.13
2019-05-11T09:36:02.829Z,101780.94
2019-05-11T09:38:08.014Z,101784.30
2019-05-11T09:40:10.570Z,101796.24
2019-05-11T09:42:12.860Z,101789.30
2019-05-11T09:44:15.056Z,101785.91
2019-05-11T09:46:18.923Z,101793.25
2019-05-11T09:48:21.119Z,101793.05
2019-05-11T09:50:24.511Z,101793.73
2019-05-11T09:52:32.451Z,101793.87
2019-05-11T09:54:34.645Z,101804.62
2019-05-11T09:56:38.161Z,101811.91
2019-05-11T09:58:40.474Z,101809.22
2019-05-11T10:00:42.521Z,101811.23
2019-05-11T10:02:44.975Z,101808.67
2019-05-11T10:04:48.443Z,101818.45
2019-05-11T10:06:50.556Z,101818.84
2019-05-11T10:08:52.794Z,101825.48
2019-05-11T10:10:54.794Z,101827.97
2019-05-11T10:12:58.778Z,101823.09
2019-05-11T10:15:01.053Z,101831.93
2019-05-11T10:17:02.858Z,101836.44
2019-05-11T10:19:04.948Z,101834.63
2019-05-11T10:21:08.126Z,101847.59
2019-05-11T10:23:10.236Z,101847.73
2019-05-11T10:25:12.490Z,101838.20
2019-05-11T10:27:14.934Z,101851.08
2019-05-11T10:29:18.329Z,101850.29
2019-05-11T10:31:21.781Z,101858.66
2019-05-11T10:33:24.299Z,101851.06
2019-05-11T10:35:26.094Z,101853.87
2019-05-11T10:37:28.449Z,101856.57
2019-05-11T10:39:30.694Z,101856.64
2019-05-11T10:41:32.706Z,101856.03
2019-05-11T10:43:34.704Z,101860.71
2019-05-11T10:45:37.900Z,101865.73
2019-05-11T10:47:40.341Z,101865.95
2019-05-11T10:49:42.376Z,101873.19
2019-05-11T10:51:44.998Z,101878.78
2019-05-11T10:53:51.286Z,101881.27
2019-05-11T10:55:50.949Z,101887.77
2019-05-11T10:57:52.941Z,101883.89
2019-05-11T10:59:57.349Z,101886.39
2019-05-11T11:01:59.247Z,101893.06
2019-05-11T11:04:01.589Z,101886.28
2019-05-11T11:06:03.822Z,101886.27
2019-05-11T11:08:08.356Z,101891.17
2019-05-11T11:10:10.742Z,101879.53
2019-05-11T11:12:13.049Z,101905.09
2019-05-11T11:14:15.054Z,101906.39
2019-05-11T11:16:35.029Z,101898.49
2019-05-11T11:18:22.309Z,101905.53
2019-05-11T11:20:24.350Z,101904.08
2019-05-11T11:22:38.935Z,101904.34
2019-05-11T11:24:30.885Z,101911.08
2019-05-11T11:26:32.914Z,101906.19
2019-05-11T11:28:35.752Z,101913.12
2019-05-11T11:30:37.997Z,101911.20
2019-05-11T11:32:40.205Z,101918.10
2019-05-11T11:34:42.547Z,101931.67
2019-05-11T11:36:44.595Z,101924.70
2019-05-11T11:38:47.913Z,101917.34
2019-05-11T11:40:50.583Z,101939.19
2019-05-11T11:42:52.834Z,101933.59
2019-05-11T11:44:54.860Z,101940.36
2019-05-11T11:46:59.098Z,101951.04
2019-05-11T11:49:00.964Z,101947.70
2019-05-11T11:51:04.079Z,101943.75
2019-05-11T11:53:08.387Z,101941.25
2019-05-11T11:55:10.610Z,101945.75
2019-05-11T11:57:12.601Z,101955.34
2019-05-11T11:59:17.826Z,101945.95
2019-05-11T12:01:20.126Z,101961.08
2019-05-11T12:03:23.814Z,101963.08
2019-05-11T12:05:28.108Z,101967.66
2019-05-11T12:07:31.157Z,101984.58
2019-05-11T12:09:34.394Z,101977.91
2019-05-11T12:11:38.019Z,101993.72
2019-05-11T12:13:40.402Z,101994.45
2019-05-11T12:15:42.461Z,101985.43
2019-05-11T12:17:44.681Z,102008.36
2019-05-11T12:19:47.800Z,101998.79
2019-05-11T12:21:50.091Z,102001.67
2019-05-11T12:23:52.460Z,102009.27
2019-05-11T12:25:54.485Z,102010.67
2019-05-11T12:27:57.726Z,102006.03
2019-05-11T12:30:00.239Z,102010.49
2019-05-11T12:32:04.783Z,102013.17
2019-05-11T12:34:08.781Z,102014.31
2019-05-11T12:36:12.899Z,102025.75
2019-05-11T12:38:15.036Z,102036.80
2019-05-11T12:40:18.096Z,102024.62
2019-05-11T12:42:20.998Z,102026.77
2019-05-11T12:44:28.166Z,102031.03
2019-05-11T12:46:30.077Z,102037.42
2019-05-11T12:48:32.417Z,102044.31
2019-05-11T12:50:34.405Z,102049.16
2019-05-11T12:52:38.271Z,102049.77
2019-05-11T12:54:40.804Z,102054.92
2019-05-11T12:56:42.532Z,102049.53
2019-05-11T13:00:12.444Z,102057.69
2019-05-11T13:02:14.685Z,102066.52
2019-05-11T13:04:18.189Z,102073.42
2019-05-11T13:06:20.576Z,102067.01
2019-05-11T13:08:22.609Z,102082.39
2019-05-11T13:10:24.752Z,102082.59
2019-05-11T13:12:27.972Z,102080.20
2019-05-11T13:14:30.126Z,102098.83
2019-05-11T13:16:32.259Z,102093.53
2019-05-11T13:18:34.576Z,102097.56
2019-05-11T13:20:37.837Z,102097.95
2019-05-11T13:22:40.060Z,102103.55
2019-05-11T13:24:42.394Z,102107.38
2019-05-11T13:26:44.488Z,102101.96
2019-05-11T13:28:48.441Z,102134.09
2019-05-11T13:30:52.670Z,102141.56
2019-05-11T13:32:55.101Z,102137.98
2019-05-11T13:34:58.410Z,102136.09
2019-05-11T13:37:01.122Z,102141.39
2019-05-11T13:39:04.741Z,102137.91
2019-05-11T13:41:07.983Z,102144.59
2019-05-11T13:43:10.478Z,102138.72
2019-05-11T13:45:14.115Z,102156.78
2019-05-11T13:47:17.994Z,102161.63
2019-05-11T13:49:20.659Z,102158.11
2019-05-11T13:51:22.674Z,102169.13
2019-05-11T13:53:24.717Z,102168.87
2019-05-11T13:55:28.690Z,102171.17
2019-05-11T13:57:30.883Z,102172.89
2019-05-11T13:59:32.932Z,102186.56
2019-05-11T14:01:37.976Z,102179.98
2019-05-11T14:03:43.874Z,102182.94
2019-05-11T14:05:48.136Z,102192.22
2019-05-11T14:07:50.398Z,102187.81
2019-05-11T14:09:52.543Z,102185.39
2019-05-11T14:11:54.645Z,102192.23
2019-05-11T14:13:58.506Z,102198.27
2019-05-11T14:16:00.676Z,102192.17
2019-05-11T14:18:08.422Z,102208.80
2019-05-11T14:20:09.275Z,102195.30
2019-05-11T14:22:11.395Z,102210.97
2019-05-11T14:24:13.410Z,102217.03
2019-05-11T14:26:15.581Z,102218.59
2019-05-11T14:28:18.093Z,102212.65
2019-05-11T14:30:20.339Z,102225.34
2019-05-11T14:32:22.602Z,102242.71
2019-05-11T14:34:24.787Z,102235.56
2019-05-11T14:36:28.170Z,102242.42
2019-05-11T14:38:31.648Z,102252.86
2019-05-11T14:40:33.700Z,102247.08
2019-05-11T14:42:37.637Z,102249.44
2019-05-11T14:44:39.889Z,102263.95
2019-05-11T14:46:42.053Z,102263.33
2019-05-11T14:48:44.462Z,102276.34
2019-05-11T14:50:48.983Z,102270.72
2019-05-11T14:52:50.935Z,102285.88
2019-05-11T14:54:53.643Z,102300.89
2019-05-11T14:56:55.957Z,102294.51
2019-05-11T14:58:58.126Z,102309.19
2019-05-11T15:01:00.221Z,102310.57
2019-05-11T15:03:02.548Z,102311.45
2019-05-11T15:05:05.253Z,102314.28
2019-05-11T15:07:08.491Z,102320.34
2019-05-11T15:09:10.894Z,102330.38
2019-05-11T15:11:12.952Z,102349.86
2019-05-11T15:13:15.041Z,102341.33
2019-05-11T15:15:18.716Z,102341.33
2019-05-11T15:17:21.335Z,102335.37
2019-05-11T15:19:23.382Z,102347.48
2019-05-11T15:21:27.920Z,102354.42
2019-05-11T15:23:29.656Z,102355.41
2019-05-11T15:25:32.655Z,102378.50
2019-05-11T15:27:34.968Z,102374.71
2019-05-11T15:29:37.782Z,102369.08
2019-05-11T15:31:40.182Z,102370.67
2019-05-11T15:33:42.412Z,102374.59
2019-05-11T15:35:44.633Z,102369.05
2019-05-11T15:37:47.941Z,102383.78
2019-05-11T15:39:50.503Z,102388.56
2019-05-11T15:42:05.697Z,102390.62
2019-05-11T15:43:57.884Z,102411.45
2019-05-11T15:46:00.578Z,102394.61
2019-05-11T15:48:02.849Z,102407.05
2019-05-11T15:50:05.151Z,102410.23
2019-05-11T15:52:08.224Z,102409.48
2019-05-11T15:54:10.541Z,102406.02
2019-05-11T15:56:12.677Z,102421.12
2019-05-11T15:58:14.900Z,102425.83
2019-05-11T16:00:19.052Z,102423.63
2019-05-11T16:02:21.104Z,102430.31
2019-05-11T16:04:23.649Z,102429.85
2019-05-11T16:06:25.465Z,102438.16
2019-05-11T16:08:28.977Z,102438.11
2019-05-11T16:10:31.195Z,102435.67
2019-05-11T16:12:33.584Z,102435.16
2019-05-11T16:14:38.199Z,102440.59
2019-05-11T16:16:40.105Z,102435.03
2019-05-11T16:18:44.068Z,102451.13
2019-05-11T16:20:49.806Z,102458.80
2019-05-11T16:22:50.350Z,102453.77
2019-05-11T16:24:52.393Z,102452.50
2019-05-11T16:26:54.482Z,102467.65
2019-05-11T16:28:58.190Z,102477.14
2019-05-11T16:31:00.350Z,102484.27
2019-05-11T16:33:02.601Z,102481.43
2019-05-11T16:35:05.439Z,102482.21
2019-05-11T16:37:09.961Z,102486.54
2019-05-11T16:39:12.299Z,102493.09
2019-05-11T16:41:14.586Z,102493.70
2019-05-11T16:43:18.991Z,102502.39
2019-05-11T16:45:23.888Z,102503.36
2019-05-11T16:47:25.072Z,102502.91
2019-05-11T16:49:32.109Z,102516.94
2019-05-11T16:51:31.157Z,102504.19
2019-05-11T16:53:35.291Z,102505.11
2019-05-11T16:55:37.807Z,102523.64
2019-05-11T16:57:39.432Z,102521.75
2019-05-11T16:59:42.064Z,102535.52
2019-05-11T17:01:44.080Z,102535.72
2019-05-11T17:03:48.132Z,102535.82
2019-05-11T17:05:50.426Z,102544.80
2019-05-11T17:07:52.547Z,102540.55
2019-05-11T17:09:54.662Z,102537.47
2019-05-11T17:11:57.864Z,102539.56
2019-05-11T17:14:00.067Z,102542.30
2019-05-11T17:16:02.316Z,102544.27
2019-05-11T17:18:04.608Z,102543.54
2019-05-11T17:20:08.064Z,102552.34
2019-05-11T17:22:10.181Z,102555.02
2019-05-11T17:24:12.547Z,102556.39
2019-05-11T17:26:14.765Z,102564.05
2019-05-11T17:28:17.094Z,102574.55
2019-05-11T17:30:19.932Z,102578.26
2019-05-11T17:32:22.076Z,102582.33
2019-05-11T17:34:24.309Z,102579.20
2019-05-11T17:36:27.932Z,102575.87
2019-05-11T17:38:30.066Z,102576.77
2019-05-11T17:40:32.120Z,102574.50
2019-05-11T17:42:34.466Z,102583.28
2019-05-11T17:44:39.264Z,102595.59
2019-05-11T17:46:41.369Z,102591.32
2019-05-11T17:48:43.703Z,102593.58
2019-05-11T17:50:45.839Z,102590.58
2019-05-11T17:52:48.119Z,102596.55
2019-05-11T17:54:50.424Z,102598.13
2019-05-11T17:56:52.765Z,102610.41
2019-05-11T17:58:55.084Z,102618.79
2019-05-11T18:00:58.854Z,102618.30
2019-05-11T18:03:01.474Z,102618.12
2019-05-11T18:05:04.218Z,102624.83
2019-05-11T18:07:06.470Z,102618.74
2019-05-11T18:09:08.844Z,102632.52
2019-05-11T18:11:10.936Z,102629.78
2019-05-11T18:13:13.310Z,102623.41
2019-05-11T18:15:49.229Z,102636.60
2019-05-11T18:17:58.574Z,102638.56
2019-05-11T18:20:13.851Z,102643.59
2019-05-11T18:22:04.203Z,102647.41
2019-05-11T18:24:08.913Z,102649.27
2019-05-11T18:26:10.626Z,102656.72
2019-05-11T18:28:14.315Z,102645.67
2019-05-11T18:30:17.047Z,102648.31
2019-05-11T18:32:19.228Z,102658.06
2019-05-11T18:34:21.353Z,102660.53
2019-05-11T18:36:24.819Z,102659.94
2019-05-11T18:38:27.656Z,102661.28
2019-05-11T18:40:30.061Z,102664.66
2019-05-11T18:42:32.113Z,102665.19
2019-05-11T18:44:34.399Z,102673.14
2019-05-11T18:46:39.103Z,102689.44
2019-05-11T18:48:41.423Z,102682.55
2019-05-11T18:50:43.969Z,102680.61
2019-05-11T18:52:46.128Z,102690.01
2019-05-11T18:54:48.781Z,102690.84
2019-05-11T18:56:51.053Z,102700.52
2019-05-11T18:58:53.146Z,102706.88
2019-05-11T19:00:55.210Z,102703.83
2019-05-11T19:02:58.164Z,102709.62
2019-05-11T19:05:00.481Z,102712.92
2019-05-11T19:07:14.259Z,102721.20
2019-05-11T19:09:08.403Z,102723.14
2019-05-11T19:11:10.556Z,102731.69
2019-05-11T19:13:12.981Z,102736.34
2019-05-11T19:15:15.341Z,102734.13
2019-05-11T19:17:18.141Z,102736.63
2019-05-11T19:19:20.408Z,102740.22
2019-05-11T19:21:22.560Z,102745.45
2019-05-11T19:23:25.041Z,102739.67
2019-05-11T19:25:26.685Z,102742.14
2019-05-11T19:27:28.968Z,102742.68
2019-05-11T19:29:31.068Z,102753.70
2019-05-11T19:31:33.243Z,102752.30
2019-05-11T19:33:38.131Z,102748.75
2019-05-11T19:35:40.326Z,102762.78
2019-05-11T19:37:42.403Z,102769.61
2019-05-11T19:39:47.681Z,102772.10
2019-05-11T19:41:48.715Z,102764.66
2019-05-11T19:43:50.896Z,102776.77
2019-05-11T19:45:53.041Z,102776.50
2019-05-11T19:47:57.589Z,102787.23
2019-05-11T19:49:59.181Z,102786.69
2019-05-11T19:52:01.468Z,102783.09
2019-05-11T19:55:51.979Z,102794.11
2019-05-11T19:57:54.461Z,102794.39
2019-05-11T19:59:58.249Z,102794.91
2019-05-11T20:02:01.150Z,102802.06
2019-05-11T20:04:03.395Z,102801.52
2019-05-11T20:06:05.538Z,102805.07
2019-05-11T20:08:08.017Z,102806.47
2019-05-11T20:10:10.503Z,102810.84
2019-05-11T20:12:12.550Z,102816.11
2019-05-11T20:14:14.994Z,102825.73
2019-05-11T20:16:18.757Z,102832.61
2019-05-11T20:18:21.945Z,102833.44
2019-05-11T20:20:24.265Z,102840.03
2019-05-11T20:22:28.161Z,102834.22
2019-05-11T20:24:30.423Z,102844.95
2019-05-11T20:26:32.507Z,102851.28
2019-05-11T20:28:35.007Z,102855.41
2019-05-11T20:30:36.686Z,102860.63
2019-05-11T20:32:39.183Z,102855.41
2019-05-11T20:34:41.367Z,102856.23
2019-05-11T20:36:43.495Z,102856.50
2019-05-11T20:38:47.654Z,102863.66
2019-05-11T20:40:51.388Z,102862.59
2019-05-11T20:42:52.951Z,102876.08
2019-05-11T20:44:55.011Z,102873.33
2019-05-11T20:46:58.059Z,102886.02
2019-05-11T20:49:00.192Z,102892.06
2019-05-11T20:51:02.688Z,102894.30
2019-05-11T20:53:04.737Z,102894.82
2019-05-11T20:55:08.912Z,102897.57
2019-05-11T20:57:11.414Z,102896.20
2019-05-11T20:59:14.324Z,102901.14
2019-05-11T21:01:17.869Z,102900.05
2019-05-11T21:03:20.305Z,102905.55
2019-05-11T21:05:22.566Z,102910.73
2019-05-11T21:07:24.684Z,102905.00
2019-05-11T21:09:28.780Z,102903.90
2019-05-11T21:11:33.374Z,102905.83
2019-05-11T21:13:35.655Z,102904.76
2019-05-11T21:15:38.455Z,102912.70
2019-05-11T21:17:42.113Z,102913.81
2019-05-11T21:19:44.008Z,102917.38
2019-05-11T21:21:52.825Z,102921.30
2019-05-11T21:23:51.159Z,102927.56
2019-05-11T21:25:54.308Z,102927.28
2019-05-11T21:27:57.969Z,102933.34
2019-05-11T21:30:00.415Z,102934.44
2019-05-11T21:32:02.641Z,102933.07
2019-05-11T21:34:04.780Z,102939.12
2019-05-11T21:36:08.828Z,102935.50
2019-05-11T21:38:10.918Z,102940.72
2019-05-11T21:40:13.206Z,102939.86
2019-05-11T21:42:15.460Z,102943.16
2019-05-11T21:44:18.867Z,102945.63
2019-05-11T21:46:23.885Z,102949.80
2019-05-11T21:48:28.048Z,102954.20
2019-05-11T21:50:36.804Z,102956.68
2019-05-11T21:52:39.082Z,102964.06
2019-05-11T21:54:42.469Z,102963.55
2019-05-11T21:56:44.536Z,102964.88
2019-05-11T21:58:46.633Z,102966.25
2019-05-11T22:00:49.281Z,102965.98
2019-05-11T22:02:53.369Z,102965.69
2019-05-11T22:04:55.691Z,102972.56
2019-05-11T22:06:59.038Z,102986.53
2019-05-11T22:09:01.049Z,102984.06
2019-05-11T22:11:04.805Z,102985.16
2019-05-11T22:13:07.172Z,102998.37
2019-05-11T22:15:09.599Z,102993.98
2019-05-11T22:17:11.951Z,103003.37
2019-05-11T22:19:14.276Z,103004.98
2019-05-11T22:21:18.614Z,103007.50
2019-05-11T22:23:20.553Z,103002.75
2019-05-11T22:25:22.722Z,103006.05
2019-05-11T22:27:24.955Z,103006.27
2019-05-11T22:29:28.635Z,103010.66
2019-05-11T22:31:31.263Z,103015.63
2019-05-11T22:33:33.591Z,103015.63
2019-05-11T22:35:37.607Z,103021.19
2019-05-11T22:37:39.704Z,103025.58
2019-05-11T22:39:41.934Z,103023.10
2019-05-11T22:41:44.039Z,103029.94
2019-05-11T22:43:48.438Z,103033.83
2019-05-11T22:45:50.174Z,103036.59
2019-05-11T22:47:52.186Z,103042.66
2019-05-11T22:49:54.536Z,103045.66
2019-05-11T22:51:59.563Z,103048.99
2019-05-11T22:54:00.524Z,103043.83
2019-05-11T22:56:02.881Z,103045.19
2019-05-11T22:58:04.560Z,103055.08
2019-05-11T23:00:08.208Z,103059.50
2019-05-11T23:02:12.439Z,103061.70
2019-05-11T23:04:14.563Z,103056.13
2019-05-11T23:06:18.043Z,103057.24
2019-05-11T23:08:20.683Z,103059.14
2019-05-11T23:10:22.217Z,103069.05
2019-05-11T23:12:24.309Z,103062.42
2019-05-11T23:14:28.253Z,103066.75
2019-05-11T23:16:30.523Z,103070.36
2019-05-11T23:18:32.537Z,103077.48
2019-05-11T23:20:34.873Z,103078.33
2019-05-11T23:22:56.130Z,103079.11
2019-05-11T23:24:50.501Z,103081.30
2019-05-11T23:26:52.735Z,103089.58